HAM weather

Hamburg Airport
Hamburg, Hamburg, Germany

Public forecast

Using degrees Celsius for public forecast. Weather courtesy of forecast.io.

METAR (pilot weather report)

Retrieved 2019/03/23 22:20 UTC (0 seconds ago):

EDDH 232220Z 29004KT CAVOK 05/03 Q1030 NOSIG

TAF (pilot weather forecast)

Retrieved 2019/03/23 18:27 UTC (4 hours ago):

TAF EDDH 231700Z 2318/2424 30008KT 9999 FEW030 BECMG 2319/2321 VRB03KT TEMPO 2400/2408 2500 BCFG BECMG 2409/2411 28008KT